sensor_id;sensor_type;location;lat;lon;timestamp;P1;durP1;ratioP1;P2;durP2;ratioP2
59416;SDS011;45222;52.458;20.914;2023-01-16T00:00:09;9.30;;;4.20;;
59416;SDS011;45222;52.458;20.914;2023-01-16T00:04:18;9.70;;;4.90;;
59416;SDS011;45222;52.458;20.914;2023-01-16T00:08:06;8.40;;;4.50;;
59416;SDS011;45222;52.458;20.914;2023-01-16T00:11:54;9.10;;;4.60;;
59416;SDS011;45222;52.458;20.914;2023-01-16T00:15:44;8.20;;;4.60;;
59416;SDS011;45222;52.458;20.914;2023-01-16T00:19:33;10.00;;;6.10;;
59416;SDS011;45222;52.458;20.914;2023-01-16T00:23:21;8.60;;;4.80;;
59416;SDS011;45222;52.458;20.914;2023-01-16T00:27:09;8.90;;;4.40;;
59416;SDS011;45222;52.458;20.914;2023-01-16T00:30:57;8.90;;;5.10;;
59416;SDS011;45222;52.458;20.914;2023-01-16T00:34:45;11.50;;;7.10;;
59416;SDS011;45222;52.458;20.914;2023-01-16T00:42:21;10.90;;;6.90;;
59416;SDS011;45222;52.458;20.914;2023-01-16T00:46:09;12.10;;;7.40;;
59416;SDS011;45222;52.458;20.914;2023-01-16T00:49:56;12.70;;;8.30;;
59416;SDS011;45222;52.458;20.914;2023-01-16T00:53:45;9.60;;;5.50;;
59416;SDS011;45222;52.458;20.914;2023-01-16T00:57:33;16.50;;;5.30;;
59416;SDS011;45222;52.458;20.914;2023-01-16T01:01:21;9.00;;;5.10;;
59416;SDS011;45222;52.458;20.914;2023-01-16T01:05:09;9.10;;;5.80;;
59416;SDS011;45222;52.458;20.914;2023-01-16T01:08:57;9.10;;;5.80;;
59416;SDS011;45222;52.458;20.914;2023-01-16T01:12:45;10.00;;;5.40;;
59416;SDS011;45222;52.458;20.914;2023-01-16T01:16:33;10.60;;;5.50;;
59416;SDS011;45222;52.458;20.914;2023-01-16T01:20:21;11.30;;;5.80;;
59416;SDS011;45222;52.458;20.914;2023-01-16T01:24:09;9.60;;;5.50;;
59416;SDS011;45222;52.458;20.914;2023-01-16T01:27:56;9.70;;;5.90;;
59416;SDS011;45222;52.458;20.914;2023-01-16T01:31:44;10.80;;;6.20;;
59416;SDS011;45222;52.458;20.914;2023-01-16T01:35:32;10.60;;;6.10;;
59416;SDS011;45222;52.458;20.914;2023-01-16T01:39:20;10.00;;;5.80;;
59416;SDS011;45222;52.458;20.914;2023-01-16T01:43:11;9.40;;;5.20;;
59416;SDS011;45222;52.458;20.914;2023-01-16T01:47:00;9.40;;;5.30;;
59416;SDS011;45222;52.458;20.914;2023-01-16T01:50:49;9.40;;;5.30;;
59416;SDS011;45222;52.458;20.914;2023-01-16T01:54:42;8.90;;;3.50;;
59416;SDS011;45222;52.458;20.914;2023-01-16T01:58:31;9.20;;;5.50;;
59416;SDS011;45222;52.458;20.914;2023-01-16T02:02:20;9.50;;;5.60;;
59416;SDS011;45222;52.458;20.914;2023-01-16T02:06:14;9.90;;;5.70;;
59416;SDS011;45222;52.458;20.914;2023-01-16T02:10:08;9.30;;;5.20;;
59416;SDS011;45222;52.458;20.914;2023-01-16T02:14:01;8.50;;;3.80;;
59416;SDS011;45222;52.458;20.914;2023-01-16T02:17:52;9.00;;;3.50;;
59416;SDS011;45222;52.458;20.914;2023-01-16T02:26:30;8.60;;;5.00;;
59416;SDS011;45222;52.458;20.914;2023-01-16T02:30:57;9.00;;;5.40;;
59416;SDS011;45222;52.458;20.914;2023-01-16T02:35:01;10.60;;;3.90;;
59416;SDS011;45222;52.458;20.914;2023-01-16T02:39:05;8.90;;;5.60;;
59416;SDS011;45222;52.458;20.914;2023-01-16T02:43:01;9.00;;;3.30;;
59416;SDS011;45222;52.458;20.914;2023-01-16T02:47:05;8.30;;;5.00;;
59416;SDS011;45222;52.458;20.914;2023-01-16T02:51:01;10.10;;;5.00;;
59416;SDS011;45222;52.458;20.914;2023-01-16T02:54:59;9.20;;;5.20;;
59416;SDS011;45222;52.458;20.914;2023-01-16T02:58:52;9.10;;;5.20;;
59416;SDS011;45222;52.458;20.914;2023-01-16T03:02:41;8.50;;;3.10;;
59416;SDS011;45222;52.458;20.914;2023-01-16T03:10:33;9.10;;;5.30;;
59416;SDS011;45222;52.458;20.914;2023-01-16T03:14:33;8.80;;;5.10;;
59416;SDS011;45222;52.458;20.914;2023-01-16T03:18:32;9.50;;;4.90;;
59416;SDS011;45222;52.458;20.914;2023-01-16T03:22:29;9.20;;;4.90;;
59416;SDS011;45222;52.458;20.914;2023-01-16T03:26:26;8.90;;;4.40;;
59416;SDS011;45222;52.458;20.914;2023-01-16T03:30:18;8.00;;;4.50;;
59416;SDS011;45222;52.458;20.914;2023-01-16T03:34:13;9.20;;;5.10;;
59416;SDS011;45222;52.458;20.914;2023-01-16T03:38:10;9.00;;;2.90;;
59416;SDS011;45222;52.458;20.914;2023-01-16T03:42:04;7.90;;;3.10;;
59416;SDS011;45222;52.458;20.914;2023-01-16T03:45:58;8.80;;;4.90;;
59416;SDS011;45222;52.458;20.914;2023-01-16T03:49:52;8.40;;;4.30;;
59416;SDS011;45222;52.458;20.914;2023-01-16T03:53:45;8.60;;;4.70;;
59416;SDS011;45222;52.458;20.914;2023-01-16T03:57:38;9.60;;;3.00;;
59416;SDS011;45222;52.458;20.914;2023-01-16T04:01:34;8.90;;;4.70;;
59416;SDS011;45222;52.458;20.914;2023-01-16T04:05:29;8.00;;;4.50;;
59416;SDS011;45222;52.458;20.914;2023-01-16T04:09:23;8.40;;;4.30;;
59416;SDS011;45222;52.458;20.914;2023-01-16T04:13:21;9.20;;;3.00;;
59416;SDS011;45222;52.458;20.914;2023-01-16T04:17:12;8.20;;;4.60;;
59416;SDS011;45222;52.458;20.914;2023-01-16T04:21:02;9.10;;;5.00;;
59416;SDS011;45222;52.458;20.914;2023-01-16T04:24:52;8.00;;;3.30;;
59416;SDS011;45222;52.458;20.914;2023-01-16T04:28:43;10.00;;;5.10;;
59416;SDS011;45222;52.458;20.914;2023-01-16T04:32:31;8.80;;;3.50;;
59416;SDS011;45222;52.458;20.914;2023-01-16T04:36:19;9.80;;;5.70;;
59416;SDS011;45222;52.458;20.914;2023-01-16T04:40:08;10.00;;;6.00;;
59416;SDS011;45222;52.458;20.914;2023-01-16T04:43:56;10.00;;;5.80;;
59416;SDS011;45222;52.458;20.914;2023-01-16T04:47:46;9.80;;;5.60;;
59416;SDS011;45222;52.458;20.914;2023-01-16T04:51:35;10.40;;;6.00;;
59416;SDS011;45222;52.458;20.914;2023-01-16T04:55:23;11.20;;;6.20;;
59416;SDS011;45222;52.458;20.914;2023-01-16T04:59:11;9.60;;;4.00;;
59416;SDS011;45222;52.458;20.914;2023-01-16T05:03:00;10.40;;;6.80;;
59416;SDS011;45222;52.458;20.914;2023-01-16T05:06:48;10.80;;;6.90;;
59416;SDS011;45222;52.458;20.914;2023-01-16T05:10:36;10.80;;;4.90;;
59416;SDS011;45222;52.458;20.914;2023-01-16T05:14:24;10.50;;;4.70;;
59416;SDS011;45222;52.458;20.914;2023-01-16T05:18:12;10.50;;;4.70;;
59416;SDS011;45222;52.458;20.914;2023-01-16T05:22:00;11.70;;;7.80;;
59416;SDS011;45222;52.458;20.914;2023-01-16T05:25:48;11.60;;;7.60;;
59416;SDS011;45222;52.458;20.914;2023-01-16T05:29:38;11.70;;;5.30;;
59416;SDS011;45222;52.458;20.914;2023-01-16T05:33:26;13.00;;;5.40;;
59416;SDS011;45222;52.458;20.914;2023-01-16T05:37:14;11.60;;;7.50;;
59416;SDS011;45222;52.458;20.914;2023-01-16T05:41:02;11.60;;;7.50;;
59416;SDS011;45222;52.458;20.914;2023-01-16T05:44:50;10.00;;;5.20;;
59416;SDS011;45222;52.458;20.914;2023-01-16T05:48:38;12.70;;;8.80;;
59416;SDS011;45222;52.458;20.914;2023-01-16T05:52:26;11.90;;;7.80;;
59416;SDS011;45222;52.458;20.914;2023-01-16T05:56:15;12.90;;;5.40;;
59416;SDS011;45222;52.458;20.914;2023-01-16T06:00:06;11.50;;;7.50;;
59416;SDS011;45222;52.458;20.914;2023-01-16T06:03:55;11.10;;;4.60;;
59416;SDS011;45222;52.458;20.914;2023-01-16T06:07:43;12.00;;;8.30;;
59416;SDS011;45222;52.458;20.914;2023-01-16T06:11:31;12.70;;;8.40;;
59416;SDS011;45222;52.458;20.914;2023-01-16T06:15:19;12.10;;;8.10;;
59416;SDS011;45222;52.458;20.914;2023-01-16T06:19:07;18.10;;;6.20;;
59416;SDS011;45222;52.458;20.914;2023-01-16T06:22:55;12.60;;;8.10;;
59416;SDS011;45222;52.458;20.914;2023-01-16T06:26:43;11.80;;;5.20;;
59416;SDS011;45222;52.458;20.914;2023-01-16T06:30:31;11.70;;;8.00;;
59416;SDS011;45222;52.458;20.914;2023-01-16T06:34:18;12.80;;;8.80;;
59416;SDS011;45222;52.458;20.914;2023-01-16T06:38:07;11.70;;;5.30;;
59416;SDS011;45222;52.458;20.914;2023-01-16T06:41:54;11.40;;;7.80;;
59416;SDS011;45222;52.458;20.914;2023-01-16T06:45:42;11.70;;;7.00;;
59416;SDS011;45222;52.458;20.914;2023-01-16T06:49:30;12.40;;;8.30;;
59416;SDS011;45222;52.458;20.914;2023-01-16T06:53:18;11.70;;;7.70;;
59416;SDS011;45222;52.458;20.914;2023-01-16T06:57:06;11.60;;;8.40;;
59416;SDS011;45222;52.458;20.914;2023-01-16T07:00:54;12.20;;;5.30;;
59416;SDS011;45222;52.458;20.914;2023-01-16T07:04:42;11.90;;;7.50;;
59416;SDS011;45222;52.458;20.914;2023-01-16T07:08:30;12.00;;;7.70;;
59416;SDS011;45222;52.458;20.914;2023-01-16T07:12:18;12.70;;;4.70;;
59416;SDS011;45222;52.458;20.914;2023-01-16T07:16:06;12.30;;;8.20;;
59416;SDS011;45222;52.458;20.914;2023-01-16T07:20:14;12.00;;;8.20;;
59416;SDS011;45222;52.458;20.914;2023-01-16T07:24:21;12.20;;;5.40;;
59416;SDS011;45222;52.458;20.914;2023-01-16T07:28:13;12.30;;;7.80;;
59416;SDS011;45222;52.458;20.914;2023-01-16T07:32:02;12.40;;;5.70;;
59416;SDS011;45222;52.458;20.914;2023-01-16T07:35:51;11.90;;;4.40;;
59416;SDS011;45222;52.458;20.914;2023-01-16T07:39:39;12.30;;;5.20;;
59416;SDS011;45222;52.458;20.914;2023-01-16T07:43:27;11.90;;;7.80;;
59416;SDS011;45222;52.458;20.914;2023-01-16T07:47:15;11.20;;;7.20;;
59416;SDS011;45222;52.458;20.914;2023-01-16T07:51:02;11.60;;;4.80;;
59416;SDS011;45222;52.458;20.914;2023-01-16T07:54:51;11.60;;;7.10;;
59416;SDS011;45222;52.458;20.914;2023-01-16T07:58:38;10.40;;;7.00;;
59416;SDS011;45222;52.458;20.914;2023-01-16T08:02:27;11.30;;;7.50;;
59416;SDS011;45222;52.458;20.914;2023-01-16T08:06:15;10.20;;;4.60;;
59416;SDS011;45222;52.458;20.914;2023-01-16T08:10:03;12.40;;;7.70;;
59416;SDS011;45222;52.458;20.914;2023-01-16T08:13:52;10.60;;;7.40;;
59416;SDS011;45222;52.458;20.914;2023-01-16T08:17:40;10.60;;;6.80;;
59416;SDS011;45222;52.458;20.914;2023-01-16T08:21:28;10.30;;;4.60;;
59416;SDS011;45222;52.458;20.914;2023-01-16T08:25:16;12.00;;;7.40;;
59416;SDS011;45222;52.458;20.914;2023-01-16T08:29:05;11.20;;;7.40;;
59416;SDS011;45222;52.458;20.914;2023-01-16T08:32:57;11.30;;;7.70;;
59416;SDS011;45222;52.458;20.914;2023-01-16T08:36:46;11.60;;;4.90;;
59416;SDS011;45222;52.458;20.914;2023-01-16T08:40:34;11.50;;;4.40;;
59416;SDS011;45222;52.458;20.914;2023-01-16T08:44:21;11.60;;;7.90;;
59416;SDS011;45222;52.458;20.914;2023-01-16T08:48:27;10.50;;;7.10;;
59416;SDS011;45222;52.458;20.914;2023-01-16T08:52:33;10.40;;;6.80;;
59416;SDS011;45222;52.458;20.914;2023-01-16T08:56:22;11.20;;;6.90;;
59416;SDS011;45222;52.458;20.914;2023-01-16T09:00:10;13.30;;;7.40;;
59416;SDS011;45222;52.458;20.914;2023-01-16T09:03:59;10.10;;;4.50;;
59416;SDS011;45222;52.458;20.914;2023-01-16T09:07:47;11.80;;;7.40;;
59416;SDS011;45222;52.458;20.914;2023-01-16T09:11:35;11.50;;;7.60;;
59416;SDS011;45222;52.458;20.914;2023-01-16T09:15:41;12.20;;;7.00;;
59416;SDS011;45222;52.458;20.914;2023-01-16T09:19:28;12.20;;;6.80;;
59416;SDS011;45222;52.458;20.914;2023-01-16T09:23:16;10.60;;;6.80;;
59416;SDS011;45222;52.458;20.914;2023-01-16T09:27:05;10.60;;;6.70;;
59416;SDS011;45222;52.458;20.914;2023-01-16T09:30:53;11.90;;;7.10;;
59416;SDS011;45222;52.458;20.914;2023-01-16T09:34:40;11.30;;;6.90;;
59416;SDS011;45222;52.458;20.914;2023-01-16T09:38:28;10.90;;;7.00;;
59416;SDS011;45222;52.458;20.914;2023-01-16T09:42:25;12.80;;;6.80;;
59416;SDS011;45222;52.458;20.914;2023-01-16T09:46:43;11.50;;;7.20;;
59416;SDS011;45222;52.458;20.914;2023-01-16T09:50:36;12.60;;;7.40;;
59416;SDS011;45222;52.458;20.914;2023-01-16T09:54:28;11.80;;;7.40;;
59416;SDS011;45222;52.458;20.914;2023-01-16T09:58:48;11.50;;;6.70;;
59416;SDS011;45222;52.458;20.914;2023-01-16T10:02:46;10.60;;;6.30;;
59416;SDS011;45222;52.458;20.914;2023-01-16T10:06:35;10.90;;;5.90;;
59416;SDS011;45222;52.458;20.914;2023-01-16T10:10:38;14.40;;;6.30;;
59416;SDS011;45222;52.458;20.914;2023-01-16T10:14:33;15.80;;;6.80;;
59416;SDS011;45222;52.458;20.914;2023-01-16T10:18:30;14.40;;;6.70;;
59416;SDS011;45222;52.458;20.914;2023-01-16T10:22:29;13.30;;;7.10;;
59416;SDS011;45222;52.458;20.914;2023-01-16T10:26:27;11.50;;;6.50;;
59416;SDS011;45222;52.458;20.914;2023-01-16T10:30:17;11.30;;;6.70;;
59416;SDS011;45222;52.458;20.914;2023-01-16T10:34:10;12.70;;;6.90;;
59416;SDS011;45222;52.458;20.914;2023-01-16T10:38:12;11.80;;;6.60;;
59416;SDS011;45222;52.458;20.914;2023-01-16T10:42:12;12.40;;;7.50;;
59416;SDS011;45222;52.458;20.914;2023-01-16T10:46:20;13.20;;;8.60;;
59416;SDS011;45222;52.458;20.914;2023-01-16T10:50:26;13.60;;;9.20;;
59416;SDS011;45222;52.458;20.914;2023-01-16T10:54:15;15.00;;;9.10;;
59416;SDS011;45222;52.458;20.914;2023-01-16T10:58:05;14.80;;;9.40;;
59416;SDS011;45222;52.458;20.914;2023-01-16T11:02:10;13.40;;;8.70;;
59416;SDS011;45222;52.458;20.914;2023-01-16T11:06:09;13.20;;;8.60;;
59416;SDS011;45222;52.458;20.914;2023-01-16T11:09:59;12.70;;;7.90;;
59416;SDS011;45222;52.458;20.914;2023-01-16T11:13:47;10.90;;;7.80;;
59416;SDS011;45222;52.458;20.914;2023-01-16T11:17:53;12.20;;;8.50;;
59416;SDS011;45222;52.458;20.914;2023-01-16T11:21:59;12.50;;;8.50;;
59416;SDS011;45222;52.458;20.914;2023-01-16T11:25:51;12.80;;;8.60;;
59416;SDS011;45222;52.458;20.914;2023-01-16T11:29:42;17.70;;;10.50;;
59416;SDS011;45222;52.458;20.914;2023-01-16T11:33:34;13.40;;;9.30;;
59416;SDS011;45222;52.458;20.914;2023-01-16T11:37:25;14.20;;;10.30;;
59416;SDS011;45222;52.458;20.914;2023-01-16T11:41:17;14.60;;;9.10;;
59416;SDS011;45222;52.458;20.914;2023-01-16T11:45:11;13.60;;;9.90;;
59416;SDS011;45222;52.458;20.914;2023-01-16T11:49:23;16.00;;;11.10;;
59416;SDS011;45222;52.458;20.914;2023-01-16T11:53:13;15.10;;;10.80;;
59416;SDS011;45222;52.458;20.914;2023-01-16T11:57:07;13.40;;;9.20;;
59416;SDS011;45222;52.458;20.914;2023-01-16T12:01:15;16.40;;;9.60;;
59416;SDS011;45222;52.458;20.914;2023-01-16T12:05:13;12.50;;;8.80;;
59416;SDS011;45222;52.458;20.914;2023-01-16T12:09:30;15.50;;;10.20;;
59416;SDS011;45222;52.458;20.914;2023-01-16T12:13:28;14.00;;;9.90;;
59416;SDS011;45222;52.458;20.914;2023-01-16T12:17:42;14.80;;;10.60;;
59416;SDS011;45222;52.458;20.914;2023-01-16T12:21:42;16.70;;;9.80;;
59416;SDS011;45222;52.458;20.914;2023-01-16T12:25:37;14.70;;;9.40;;
59416;SDS011;45222;52.458;20.914;2023-01-16T12:29:35;16.20;;;10.30;;
59416;SDS011;45222;52.458;20.914;2023-01-16T12:33:45;15.00;;;11.00;;
59416;SDS011;45222;52.458;20.914;2023-01-16T12:37:50;18.60;;;12.70;;
59416;SDS011;45222;52.458;20.914;2023-01-16T12:41:51;16.80;;;12.30;;
59416;SDS011;45222;52.458;20.914;2023-01-16T12:46:07;18.50;;;12.90;;
59416;SDS011;45222;52.458;20.914;2023-01-16T12:50:06;18.80;;;13.50;;
59416;SDS011;45222;52.458;20.914;2023-01-16T12:58:25;23.60;;;16.90;;
59416;SDS011;45222;52.458;20.914;2023-01-16T13:02:18;22.60;;;16.40;;
59416;SDS011;45222;52.458;20.914;2023-01-16T13:06:13;24.20;;;16.50;;
59416;SDS011;45222;52.458;20.914;2023-01-16T13:10:12;22.80;;;16.40;;
59416;SDS011;45222;52.458;20.914;2023-01-16T13:14:21;25.90;;;17.80;;
59416;SDS011;45222;52.458;20.914;2023-01-16T13:18:13;28.60;;;18.30;;
59416;SDS011;45222;52.458;20.914;2023-01-16T13:22:05;24.30;;;18.10;;
59416;SDS011;45222;52.458;20.914;2023-01-16T13:26:00;24.60;;;17.30;;
59416;SDS011;45222;52.458;20.914;2023-01-16T13:29:54;21.30;;;16.00;;
59416;SDS011;45222;52.458;20.914;2023-01-16T13:33:47;21.30;;;16.00;;
59416;SDS011;45222;52.458;20.914;2023-01-16T13:37:48;20.50;;;15.80;;
59416;SDS011;45222;52.458;20.914;2023-01-16T13:41:45;21.60;;;16.00;;
59416;SDS011;45222;52.458;20.914;2023-01-16T13:45:36;22.40;;;15.80;;
59416;SDS011;45222;52.458;20.914;2023-01-16T13:49:35;19.20;;;15.00;;
59416;SDS011;45222;52.458;20.914;2023-01-16T13:53:24;20.70;;;15.30;;
59416;SDS011;45222;52.458;20.914;2023-01-16T13:57:14;21.20;;;16.20;;
59416;SDS011;45222;52.458;20.914;2023-01-16T14:01:04;20.20;;;15.80;;
59416;SDS011;45222;52.458;20.914;2023-01-16T14:05:21;20.50;;;15.40;;
59416;SDS011;45222;52.458;20.914;2023-01-16T14:09:19;18.30;;;14.20;;
59416;SDS011;45222;52.458;20.914;2023-01-16T14:13:14;18.00;;;14.20;;
59416;SDS011;45222;52.458;20.914;2023-01-16T14:17:11;19.70;;;16.00;;
59416;SDS011;45222;52.458;20.914;2023-01-16T14:21:02;19.30;;;15.10;;
59416;SDS011;45222;52.458;20.914;2023-01-16T14:24:56;18.50;;;14.40;;
59416;SDS011;45222;52.458;20.914;2023-01-16T14:28:47;18.60;;;14.70;;
59416;SDS011;45222;52.458;20.914;2023-01-16T14:32:43;19.70;;;16.10;;
59416;SDS011;45222;52.458;20.914;2023-01-16T14:36:33;19.30;;;15.50;;
59416;SDS011;45222;52.458;20.914;2023-01-16T14:44:31;21.40;;;16.40;;
59416;SDS011;45222;52.458;20.914;2023-01-16T14:48:50;22.00;;;17.40;;
59416;SDS011;45222;52.458;20.914;2023-01-16T14:53:02;22.40;;;18.00;;
59416;SDS011;45222;52.458;20.914;2023-01-16T14:57:17;21.40;;;17.50;;
59416;SDS011;45222;52.458;20.914;2023-01-16T15:01:08;20.10;;;16.90;;
59416;SDS011;45222;52.458;20.914;2023-01-16T15:05:23;24.10;;;17.70;;
59416;SDS011;45222;52.458;20.914;2023-01-16T15:09:36;25.10;;;20.30;;
59416;SDS011;45222;52.458;20.914;2023-01-16T15:13:26;24.30;;;11.90;;
59416;SDS011;45222;52.458;20.914;2023-01-16T15:17:37;26.50;;;21.30;;
59416;SDS011;45222;52.458;20.914;2023-01-16T15:21:46;23.70;;;20.10;;
59416;SDS011;45222;52.458;20.914;2023-01-16T15:25:47;27.90;;;20.90;;
59416;SDS011;45222;52.458;20.914;2023-01-16T15:29:58;25.30;;;12.80;;
59416;SDS011;45222;52.458;20.914;2023-01-16T15:33:58;24.00;;;19.60;;
59416;SDS011;45222;52.458;20.914;2023-01-16T15:37:48;25.90;;;21.40;;
59416;SDS011;45222;52.458;20.914;2023-01-16T15:41:38;25.40;;;21.40;;
59416;SDS011;45222;52.458;20.914;2023-01-16T15:45:47;24.80;;;21.30;;
59416;SDS011;45222;52.458;20.914;2023-01-16T15:50:02;26.20;;;21.80;;
59416;SDS011;45222;52.458;20.914;2023-01-16T15:54:00;24.50;;;20.50;;
59416;SDS011;45222;52.458;20.914;2023-01-16T15:57:49;26.80;;;20.90;;
59416;SDS011;45222;52.458;20.914;2023-01-16T16:01:39;24.50;;;20.30;;
59416;SDS011;45222;52.458;20.914;2023-01-16T16:05:27;24.70;;;20.80;;
59416;SDS011;45222;52.458;20.914;2023-01-16T16:09:17;26.20;;;22.50;;
59416;SDS011;45222;52.458;20.914;2023-01-16T16:13:09;27.70;;;23.90;;
59416;SDS011;45222;52.458;20.914;2023-01-16T16:17:03;29.30;;;24.40;;
59416;SDS011;45222;52.458;20.914;2023-01-16T16:21:20;24.70;;;12.60;;
59416;SDS011;45222;52.458;20.914;2023-01-16T16:25:15;30.20;;;14.80;;
59416;SDS011;45222;52.458;20.914;2023-01-16T16:29:14;36.70;;;16.10;;
59416;SDS011;45222;52.458;20.914;2023-01-16T16:33:12;30.90;;;25.30;;
59416;SDS011;45222;52.458;20.914;2023-01-16T16:37:03;30.30;;;26.40;;
59416;SDS011;45222;52.458;20.914;2023-01-16T16:41:01;31.40;;;26.40;;
59416;SDS011;45222;52.458;20.914;2023-01-16T16:45:40;30.10;;;14.30;;
59416;SDS011;45222;52.458;20.914;2023-01-16T16:49:28;29.80;;;14.90;;
59416;SDS011;45222;52.458;20.914;2023-01-16T16:53:23;29.10;;;14.50;;
59416;SDS011;45222;52.458;20.914;2023-01-16T16:57:12;30.90;;;14.30;;
59416;SDS011;45222;52.458;20.914;2023-01-16T17:01:00;30.80;;;26.50;;
59416;SDS011;45222;52.458;20.914;2023-01-16T17:04:48;30.40;;;25.90;;
59416;SDS011;45222;52.458;20.914;2023-01-16T17:08:36;28.40;;;23.40;;
59416;SDS011;45222;52.458;20.914;2023-01-16T17:12:24;27.50;;;14.00;;
59416;SDS011;45222;52.458;20.914;2023-01-16T17:16:15;30.30;;;24.70;;
59416;SDS011;45222;52.458;20.914;2023-01-16T17:20:04;31.80;;;14.80;;
59416;SDS011;45222;52.458;20.914;2023-01-16T17:23:58;31.90;;;26.90;;
59416;SDS011;45222;52.458;20.914;2023-01-16T17:27:46;34.60;;;16.10;;
59416;SDS011;45222;52.458;20.914;2023-01-16T17:31:34;38.50;;;31.70;;
59416;SDS011;45222;52.458;20.914;2023-01-16T17:35:26;35.40;;;17.50;;
59416;SDS011;45222;52.458;20.914;2023-01-16T17:39:14;34.50;;;28.30;;
59416;SDS011;45222;52.458;20.914;2023-01-16T17:43:02;34.20;;;27.90;;
59416;SDS011;45222;52.458;20.914;2023-01-16T17:47:07;34.60;;;28.50;;
59416;SDS011;45222;52.458;20.914;2023-01-16T17:50:57;30.90;;;14.90;;
59416;SDS011;45222;52.458;20.914;2023-01-16T17:54:45;39.40;;;31.50;;
59416;SDS011;45222;52.458;20.914;2023-01-16T17:58:55;46.60;;;39.30;;
59416;SDS011;45222;52.458;20.914;2023-01-16T18:02:50;33.80;;;28.60;;
59416;SDS011;45222;52.458;20.914;2023-01-16T18:06:39;37.60;;;17.50;;
59416;SDS011;45222;52.458;20.914;2023-01-16T18:10:27;43.80;;;39.00;;
59416;SDS011;45222;52.458;20.914;2023-01-16T18:14:15;34.10;;;28.60;;
59416;SDS011;45222;52.458;20.914;2023-01-16T18:18:21;34.90;;;29.00;;
59416;SDS011;45222;52.458;20.914;2023-01-16T18:22:09;33.80;;;29.20;;
59416;SDS011;45222;52.458;20.914;2023-01-16T18:25:57;35.60;;;16.50;;
59416;SDS011;45222;52.458;20.914;2023-01-16T18:29:45;35.90;;;17.20;;
59416;SDS011;45222;52.458;20.914;2023-01-16T18:33:33;33.90;;;17.10;;
59416;SDS011;45222;52.458;20.914;2023-01-16T18:37:21;34.50;;;17.60;;
59416;SDS011;45222;52.458;20.914;2023-01-16T18:41:11;34.10;;;29.90;;
59416;SDS011;45222;52.458;20.914;2023-01-16T18:45:16;37.40;;;31.70;;
59416;SDS011;45222;52.458;20.914;2023-01-16T18:49:22;34.10;;;30.30;;
59416;SDS011;45222;52.458;20.914;2023-01-16T18:53:28;37.20;;;18.00;;
59416;SDS011;45222;52.458;20.914;2023-01-16T18:57:35;36.50;;;29.60;;
59416;SDS011;45222;52.458;20.914;2023-01-16T19:01:41;36.90;;;29.70;;
59416;SDS011;45222;52.458;20.914;2023-01-16T19:05:43;35.30;;;29.10;;
59416;SDS011;45222;52.458;20.914;2023-01-16T19:09:31;37.50;;;29.60;;
59416;SDS011;45222;52.458;20.914;2023-01-16T19:13:21;29.80;;;25.40;;
59416;SDS011;45222;52.458;20.914;2023-01-16T19:17:21;29.00;;;23.70;;
59416;SDS011;45222;52.458;20.914;2023-01-16T19:21:09;27.30;;;22.50;;
59416;SDS011;45222;52.458;20.914;2023-01-16T19:24:57;26.50;;;21.50;;
59416;SDS011;45222;52.458;20.914;2023-01-16T19:28:45;26.30;;;21.70;;
59416;SDS011;45222;52.458;20.914;2023-01-16T19:32:35;24.60;;;20.90;;
59416;SDS011;45222;52.458;20.914;2023-01-16T19:36:24;24.00;;;19.10;;
59416;SDS011;45222;52.458;20.914;2023-01-16T19:40:13;26.30;;;12.20;;
59416;SDS011;45222;52.458;20.914;2023-01-16T19:48:06;21.10;;;16.00;;
59416;SDS011;45222;52.458;20.914;2023-01-16T19:51:54;21.90;;;17.50;;
59416;SDS011;45222;52.458;20.914;2023-01-16T19:55:42;23.10;;;18.40;;
59416;SDS011;45222;52.458;20.914;2023-01-16T19:59:30;26.40;;;19.80;;
59416;SDS011;45222;52.458;20.914;2023-01-16T20:03:18;25.20;;;19.90;;
59416;SDS011;45222;52.458;20.914;2023-01-16T20:07:06;27.50;;;20.80;;
59416;SDS011;45222;52.458;20.914;2023-01-16T20:10:56;25.40;;;12.30;;
59416;SDS011;45222;52.458;20.914;2023-01-16T20:14:44;22.50;;;17.80;;
59416;SDS011;45222;52.458;20.914;2023-01-16T20:18:32;22.80;;;18.00;;
59416;SDS011;45222;52.458;20.914;2023-01-16T20:26:08;21.20;;;17.50;;
59416;SDS011;45222;52.458;20.914;2023-01-16T20:29:55;21.60;;;18.00;;
59416;SDS011;45222;52.458;20.914;2023-01-16T20:33:44;21.10;;;16.80;;
59416;SDS011;45222;52.458;20.914;2023-01-16T20:37:31;18.60;;;15.40;;
59416;SDS011;45222;52.458;20.914;2023-01-16T20:41:20;19.70;;;15.50;;
59416;SDS011;45222;52.458;20.914;2023-01-16T20:45:25;20.10;;;16.20;;
59416;SDS011;45222;52.458;20.914;2023-01-16T20:49:31;19.90;;;16.30;;
59416;SDS011;45222;52.458;20.914;2023-01-16T20:53:19;19.80;;;15.00;;
59416;SDS011;45222;52.458;20.914;2023-01-16T20:57:08;19.80;;;14.70;;
59416;SDS011;45222;52.458;20.914;2023-01-16T21:00:58;20.30;;;9.70;;
59416;SDS011;45222;52.458;20.914;2023-01-16T21:04:46;19.20;;;15.60;;
59416;SDS011;45222;52.458;20.914;2023-01-16T21:08:36;20.50;;;16.30;;
59416;SDS011;45222;52.458;20.914;2023-01-16T21:12:24;18.90;;;15.30;;
59416;SDS011;45222;52.458;20.914;2023-01-16T21:16:30;17.30;;;14.20;;
59416;SDS011;45222;52.458;20.914;2023-01-16T21:20:36;17.40;;;14.20;;
59416;SDS011;45222;52.458;20.914;2023-01-16T21:24:42;18.80;;;14.60;;
59416;SDS011;45222;52.458;20.914;2023-01-16T21:28:29;17.70;;;14.70;;
59416;SDS011;45222;52.458;20.914;2023-01-16T21:32:17;19.60;;;15.30;;
59416;SDS011;45222;52.458;20.914;2023-01-16T21:36:06;18.70;;;15.10;;
59416;SDS011;45222;52.458;20.914;2023-01-16T21:39:56;17.50;;;7.80;;
59416;SDS011;45222;52.458;20.914;2023-01-16T21:43:44;18.20;;;14.60;;
59416;SDS011;45222;52.458;20.914;2023-01-16T21:47:55;18.60;;;14.60;;
59416;SDS011;45222;52.458;20.914;2023-01-16T21:51:45;18.90;;;14.60;;
59416;SDS011;45222;52.458;20.914;2023-01-16T21:55:33;19.70;;;10.60;;
59416;SDS011;45222;52.458;20.914;2023-01-16T21:59:21;21.10;;;16.90;;
59416;SDS011;45222;52.458;20.914;2023-01-16T22:03:09;21.10;;;17.80;;
59416;SDS011;45222;52.458;20.914;2023-01-16T22:06:57;20.00;;;16.10;;
59416;SDS011;45222;52.458;20.914;2023-01-16T22:10:45;20.50;;;16.40;;
59416;SDS011;45222;52.458;20.914;2023-01-16T22:14:47;19.00;;;15.20;;
59416;SDS011;45222;52.458;20.914;2023-01-16T22:18:52;19.10;;;9.90;;
59416;SDS011;45222;52.458;20.914;2023-01-16T22:22:41;20.60;;;17.30;;
59416;SDS011;45222;52.458;20.914;2023-01-16T22:26:34;19.40;;;16.30;;
59416;SDS011;45222;52.458;20.914;2023-01-16T22:30:22;20.80;;;10.40;;
59416;SDS011;45222;52.458;20.914;2023-01-16T22:34:10;20.70;;;16.40;;
59416;SDS011;45222;52.458;20.914;2023-01-16T22:37:58;18.20;;;15.70;;
59416;SDS011;45222;52.458;20.914;2023-01-16T22:41:46;20.50;;;16.30;;
59416;SDS011;45222;52.458;20.914;2023-01-16T22:45:34;22.30;;;10.00;;
59416;SDS011;45222;52.458;20.914;2023-01-16T22:49:42;20.40;;;16.30;;
59416;SDS011;45222;52.458;20.914;2023-01-16T22:53:30;18.80;;;15.10;;
59416;SDS011;45222;52.458;20.914;2023-01-16T22:57:18;19.10;;;14.90;;
59416;SDS011;45222;52.458;20.914;2023-01-16T23:01:06;18.10;;;14.20;;
59416;SDS011;45222;52.458;20.914;2023-01-16T23:04:56;16.90;;;8.00;;
59416;SDS011;45222;52.458;20.914;2023-01-16T23:08:44;16.20;;;13.50;;